createdAt,value
2023-03-22T00:02:05.326Z,100754.28
2023-03-22T00:04:32.574Z,100753.59
2023-03-22T00:06:58.999Z,100748.25
2023-03-22T00:09:25.486Z,100750.78
2023-03-22T00:11:52.088Z,100739.66
2023-03-22T00:14:18.708Z,100740.09
2023-03-22T00:16:46.278Z,100731.94
2023-03-22T00:19:12.825Z,100732.75
2023-03-22T00:21:39.266Z,100727.19
2023-03-22T00:24:06.330Z,100728.97
2023-03-22T00:26:32.787Z,100722.22
2023-03-22T00:28:59.305Z,100717.34
2023-03-22T00:31:25.742Z,100721.31
2023-03-22T00:33:52.149Z,100718.06
2023-03-22T00:36:18.572Z,100711.19
2023-03-22T00:38:45.315Z,100718.59
2023-03-22T00:41:13.366Z,100721.53
2023-03-22T00:43:40.087Z,100716.13
2023-03-22T00:46:06.758Z,100716.38
2023-03-22T00:48:33.533Z,100715.63
2023-03-22T00:50:59.954Z,100707.19
2023-03-22T00:53:26.444Z,100701.88
2023-03-22T00:55:52.989Z,100699.19
2023-03-22T00:58:19.372Z,100698.72
2023-03-22T01:00:46.100Z,100689.06
2023-03-22T01:03:14.233Z,100686.66
2023-03-22T01:05:40.696Z,100691.66
2023-03-22T01:08:09.984Z,100682.44
2023-03-22T01:10:37.542Z,100683.88
2023-03-22T01:13:04.464Z,100691.34
2023-03-22T01:15:30.953Z,100683.22
2023-03-22T01:17:57.701Z,100684.50
2023-03-22T01:20:24.136Z,100677.84
2023-03-22T01:22:50.611Z,100683.66
2023-03-22T01:25:17.201Z,100682.09
2023-03-22T01:27:43.605Z,100680.50
2023-03-22T01:30:10.776Z,100671.50
2023-03-22T01:32:37.597Z,100672.00
2023-03-22T01:35:05.637Z,100662.34
2023-03-22T01:37:32.546Z,100657.56
2023-03-22T01:39:59.131Z,100652.97
2023-03-22T01:42:26.388Z,100649.91
2023-03-22T01:45:38.889Z,100649.44
2023-03-22T01:48:10.595Z,100645.91
2023-03-22T01:50:38.996Z,100645.78
2023-03-22T01:53:07.622Z,100644.28
2023-03-22T01:55:34.212Z,100645.69
2023-03-22T01:58:01.410Z,100637.91
2023-03-22T02:00:27.846Z,100637.03
2023-03-22T02:02:54.282Z,100628.72
2023-03-22T02:05:22.336Z,100635.81
2023-03-22T02:07:49.916Z,100628.25
2023-03-22T02:10:22.870Z,100626.50
2023-03-22T02:13:01.069Z,100630.66
2023-03-22T02:15:40.944Z,100621.31
2023-03-22T02:18:30.056Z,100619.13
2023-03-22T02:21:18.347Z,100619.47
2023-03-22T02:24:18.255Z,100619.22
2023-03-22T02:26:50.657Z,100626.69
2023-03-22T02:29:26.330Z,100621.44
2023-03-22T02:32:11.004Z,100621.78
2023-03-22T02:35:07.377Z,100618.66
2023-03-22T02:37:38.778Z,100612.13
2023-03-22T02:40:11.330Z,100611.75
2023-03-22T02:42:43.479Z,100610.81
2023-03-22T02:45:34.797Z,100623.94
2023-03-22T02:48:18.790Z,100610.25
2023-03-22T02:51:01.927Z,100611.31
2023-03-22T02:53:34.389Z,100612.00
2023-03-22T02:56:02.733Z,100606.84
2023-03-22T02:58:30.383Z,100611.22
2023-03-22T03:01:00.797Z,100606.53
2023-03-22T03:03:30.119Z,100597.34
2023-03-22T03:05:59.769Z,100603.19
2023-03-22T03:08:26.588Z,100597.09
2023-03-22T03:10:53.668Z,100600.75
2023-03-22T03:13:20.409Z,100595.22
2023-03-22T03:15:52.641Z,100591.91
2023-03-22T03:18:28.472Z,100604.50
2023-03-22T03:21:00.565Z,100598.50
2023-03-22T03:23:34.762Z,100596.16
2023-03-22T03:26:08.179Z,100587.50
2023-03-22T03:28:57.226Z,100595.69
2023-03-22T03:31:35.082Z,100591.69
2023-03-22T03:34:23.199Z,100598.97
2023-03-22T03:36:59.778Z,100598.22
2023-03-22T03:39:28.544Z,100591.03
2023-03-22T03:41:55.540Z,100594.91
2023-03-22T03:44:22.461Z,100598.34
2023-03-22T03:46:49.128Z,100590.59
2023-03-22T03:49:16.653Z,100590.41
2023-03-22T03:51:53.680Z,100588.06
2023-03-22T03:54:20.591Z,100587.66
2023-03-22T03:56:47.771Z,100590.84
2023-03-22T03:59:18.141Z,100586.16
2023-03-22T04:01:52.418Z,100585.25
2023-03-22T04:04:26.328Z,100574.78
2023-03-22T04:06:56.627Z,100593.19
2023-03-22T04:09:24.665Z,100581.00
2023-03-22T04:11:51.473Z,100580.16
2023-03-22T04:14:17.834Z,100581.94
2023-03-22T04:16:44.354Z,100579.28
2023-03-22T04:19:11.025Z,100577.78
2023-03-22T04:21:37.792Z,100581.63
2023-03-22T04:24:04.578Z,100576.94
2023-03-22T04:26:31.268Z,100579.38
2023-03-22T04:28:58.570Z,100574.38
2023-03-22T04:31:28.036Z,100576.72
2023-03-22T04:33:55.111Z,100572.84
2023-03-22T04:36:22.969Z,100570.28
2023-03-22T04:38:50.508Z,100556.06
2023-03-22T04:41:17.795Z,100565.38
2023-03-22T04:43:46.863Z,100558.50
2023-03-22T04:46:14.121Z,100569.44
2023-03-22T04:48:41.733Z,100550.22
2023-03-22T04:51:10.163Z,100551.25
2023-03-22T04:53:40.006Z,100551.25
2023-03-22T04:56:08.256Z,100546.56
2023-03-22T04:58:36.530Z,100540.69
2023-03-22T05:01:03.357Z,100547.53
2023-03-22T05:03:29.700Z,100549.13
2023-03-22T05:05:57.809Z,100548.50
2023-03-22T05:08:25.107Z,100547.09
2023-03-22T05:10:56.258Z,100543.34
2023-03-22T05:13:24.789Z,100541.13
2023-03-22T05:15:52.000Z,100543.34
2023-03-22T05:18:24.637Z,100538.63
2023-03-22T05:20:51.081Z,100540.97
2023-03-22T05:23:19.196Z,100532.31
2023-03-22T05:25:47.055Z,100527.81
2023-03-22T05:28:14.321Z,100523.03
2023-03-22T05:30:44.009Z,100529.88
2023-03-22T05:33:10.504Z,100518.28
2023-03-22T05:35:39.318Z,100517.47
2023-03-22T05:38:06.846Z,100517.03
2023-03-22T05:40:33.740Z,100525.16
2023-03-22T05:43:00.409Z,100520.47
2023-03-22T05:45:26.947Z,100507.84
2023-03-22T05:47:53.394Z,100508.16
2023-03-22T05:50:21.959Z,100513.94
2023-03-22T05:52:48.930Z,100508.56
2023-03-22T05:55:19.584Z,100508.81
2023-03-22T05:57:46.918Z,100508.03
2023-03-22T06:00:16.182Z,100515.47
2023-03-22T06:02:43.745Z,100509.91
2023-03-22T06:05:11.232Z,100507.00
2023-03-22T06:07:38.644Z,100513.75
2023-03-22T06:10:06.584Z,100500.69
2023-03-22T06:12:33.035Z,100512.34
2023-03-22T06:14:59.909Z,100494.91
2023-03-22T06:17:26.787Z,100495.78
2023-03-22T06:19:54.741Z,100496.44
2023-03-22T06:22:21.761Z,100498.56
2023-03-22T06:24:48.761Z,100489.88
2023-03-22T06:27:15.645Z,100487.97
2023-03-22T06:29:42.176Z,100501.56
2023-03-22T06:32:08.609Z,100497.75
2023-03-22T06:34:35.312Z,100499.31
2023-03-22T06:37:01.843Z,100498.84
2023-03-22T06:39:28.275Z,100502.50
2023-03-22T06:41:54.686Z,100490.16
2023-03-22T06:44:22.542Z,100499.84
2023-03-22T06:46:49.005Z,100487.94
2023-03-22T06:49:16.825Z,100490.28
2023-03-22T06:51:43.347Z,100487.19
2023-03-22T06:54:09.800Z,100489.75
2023-03-22T06:56:36.281Z,100486.41
2023-03-22T06:59:02.786Z,100487.41
2023-03-22T07:01:29.216Z,100486.97
2023-03-22T07:03:55.721Z,100480.28
2023-03-22T07:06:22.114Z,100489.00
2023-03-22T07:08:50.732Z,100485.97
2023-03-22T07:11:18.084Z,100490.00
2023-03-22T07:13:45.234Z,100487.16
2023-03-22T07:16:11.784Z,100482.69
2023-03-22T07:18:38.278Z,100487.47
2023-03-22T07:21:04.974Z,100488.53
2023-03-22T07:23:31.414Z,100484.03
2023-03-22T07:25:59.209Z,100473.72
2023-03-22T07:28:25.720Z,100473.03
2023-03-22T07:31:07.286Z,100468.69
2023-03-22T07:33:33.780Z,100466.59
2023-03-22T07:36:00.536Z,100455.88
2023-03-22T07:38:27.039Z,100453.94
2023-03-22T07:40:54.915Z,100451.97
2023-03-22T07:43:21.986Z,100445.72
2023-03-22T07:45:49.413Z,100445.72
2023-03-22T07:48:16.244Z,100445.59
2023-03-22T07:50:43.238Z,100443.50
2023-03-22T07:53:10.179Z,100442.16
2023-03-22T07:55:37.418Z,100437.66
2023-03-22T07:58:04.400Z,100439.78
2023-03-22T08:00:31.775Z,100421.41
2023-03-22T08:02:58.367Z,100437.06
2023-03-22T08:05:25.226Z,100432.28
2023-03-22T08:07:54.385Z,100432.84
2023-03-22T08:10:20.818Z,100442.97
2023-03-22T08:12:47.209Z,100431.81
2023-03-22T08:15:13.679Z,100442.34
2023-03-22T08:17:40.240Z,100434.66
2023-03-22T08:20:09.004Z,100432.44
2023-03-22T08:22:36.444Z,100428.16
2023-03-22T08:25:04.934Z,100414.94
2023-03-22T08:27:31.893Z,100410.78
2023-03-22T08:29:58.660Z,100412.22
2023-03-22T08:32:25.607Z,100404.16
2023-03-22T08:34:52.813Z,100410.06
2023-03-22T08:37:22.195Z,100415.47
2023-03-22T08:39:48.612Z,100415.84
2023-03-22T08:42:15.417Z,100418.47
2023-03-22T08:44:41.980Z,100413.47
2023-03-22T08:47:08.415Z,100406.34
2023-03-22T08:49:34.842Z,100410.47
2023-03-22T08:52:01.296Z,100399.88
2023-03-22T08:54:33.549Z,100397.28
2023-03-22T08:57:00.842Z,100403.16
2023-03-22T08:59:27.873Z,100413.38
2023-03-22T09:01:54.345Z,100399.03
2023-03-22T09:04:21.199Z,100406.16
2023-03-22T09:06:47.696Z,100406.91
2023-03-22T09:09:14.676Z,100398.69
2023-03-22T09:11:42.676Z,100394.19
2023-03-22T09:14:09.879Z,100403.78
2023-03-22T09:16:36.376Z,100397.13
2023-03-22T09:19:02.869Z,100389.69
2023-03-22T09:21:32.243Z,100390.47
2023-03-22T09:23:58.773Z,100390.41
2023-03-22T09:26:25.620Z,100370.34
2023-03-22T09:28:52.697Z,100380.91
2023-03-22T09:31:20.733Z,100386.84
2023-03-22T09:33:49.757Z,100371.22
2023-03-22T09:36:16.613Z,100369.00
2023-03-22T09:38:43.061Z,100372.28
2023-03-22T09:41:21.219Z,100372.03
2023-03-22T09:43:57.567Z,100366.00
2023-03-22T09:46:45.312Z,100378.94
2023-03-22T09:49:18.636Z,100387.13
2023-03-22T09:51:47.090Z,100380.19
2023-03-22T09:54:21.500Z,100382.50
2023-03-22T09:56:56.328Z,100394.81
2023-03-22T09:59:40.020Z,100397.41
2023-03-22T10:02:34.564Z,100390.56
2023-03-22T10:05:12.903Z,100395.59
2023-03-22T10:07:52.643Z,100407.84
2023-03-22T10:10:21.420Z,100399.66
2023-03-22T10:13:01.073Z,100408.59
2023-03-22T10:15:49.352Z,100398.91
2023-03-22T10:18:25.765Z,100395.00
2023-03-22T10:21:01.058Z,100376.53
2023-03-22T10:23:32.782Z,100396.16
2023-03-22T10:26:01.093Z,100388.78
2023-03-22T10:28:41.862Z,100383.78
2023-03-22T10:31:14.550Z,100388.78
2023-03-22T10:33:50.386Z,100392.47
2023-03-22T10:36:19.664Z,100385.50
2023-03-22T10:38:49.488Z,100379.38
2023-03-22T10:41:18.536Z,100389.56
2023-03-22T10:43:46.006Z,100392.91
2023-03-22T10:46:19.999Z,100397.53
2023-03-22T10:48:48.850Z,100407.50
2023-03-22T10:51:23.527Z,100408.03
2023-03-22T10:53:51.777Z,100395.44
2023-03-22T10:56:20.152Z,100395.63
2023-03-22T10:58:47.878Z,100412.63
2023-03-22T11:01:17.138Z,100411.22
2023-03-22T11:03:46.900Z,100403.28
2023-03-22T11:06:20.902Z,100404.94
2023-03-22T11:08:52.937Z,100405.34
2023-03-22T11:11:28.108Z,100388.28
2023-03-22T11:14:04.173Z,100378.38
2023-03-22T11:16:33.128Z,100376.06
2023-03-22T11:19:02.126Z,100380.97
2023-03-22T11:21:31.478Z,100379.50
2023-03-22T11:24:02.971Z,100375.56
2023-03-22T11:26:35.705Z,100377.72
2023-03-22T11:29:13.927Z,100379.81
2023-03-22T11:31:56.468Z,100374.53
2023-03-22T11:34:26.417Z,100371.28
2023-03-22T11:36:56.431Z,100376.84
2023-03-22T11:39:26.009Z,100376.81
2023-03-22T11:41:52.870Z,100381.09
2023-03-22T11:44:21.859Z,100387.66
2023-03-22T11:46:50.338Z,100375.03
2023-03-22T11:49:17.597Z,100363.22
2023-03-22T11:51:44.246Z,100375.88
2023-03-22T11:54:17.261Z,100390.78
2023-03-22T11:56:47.276Z,100399.56
2023-03-22T11:59:30.698Z,100387.13
2023-03-22T12:02:18.649Z,100397.09
2023-03-22T12:04:48.632Z,100398.34
2023-03-22T12:07:22.313Z,100385.53
2023-03-22T12:10:11.504Z,100381.41
2023-03-22T12:12:56.288Z,100379.31
2023-03-22T12:15:24.843Z,100394.47
2023-03-22T12:18:12.621Z,100393.41
2023-03-22T12:20:55.392Z,100398.34
2023-03-22T12:23:31.162Z,100390.59
2023-03-22T12:26:09.607Z,100387.16
2023-03-22T12:28:56.604Z,100390.59
2023-03-22T12:31:31.183Z,100381.91
2023-03-22T12:34:00.278Z,100389.19
2023-03-22T12:36:47.366Z,100383.34
2023-03-22T12:39:23.182Z,100382.56
2023-03-22T12:41:50.761Z,100380.19
2023-03-22T12:44:19.091Z,100384.06
2023-03-22T12:46:51.541Z,100378.16
2023-03-22T12:49:28.804Z,100386.28
2023-03-22T12:52:03.545Z,100386.94
2023-03-22T12:54:30.069Z,100385.56
2023-03-22T12:56:56.558Z,100380.91
2023-03-22T12:59:27.082Z,100382.94
2023-03-22T13:02:00.181Z,100376.44
2023-03-22T13:04:48.021Z,100384.72
2023-03-22T13:07:14.848Z,100378.13
2023-03-22T13:09:42.836Z,100379.97
2023-03-22T13:12:22.431Z,100391.56
2023-03-22T13:14:50.186Z,100393.53
2023-03-22T13:17:24.060Z,100390.09
2023-03-22T13:19:55.554Z,100380.38
2023-03-22T13:22:49.499Z,100381.06
2023-03-22T13:25:19.605Z,100379.03
2023-03-22T13:27:46.082Z,100370.16
2023-03-22T13:30:21.953Z,100377.25
2023-03-22T13:32:54.611Z,100368.53
2023-03-22T13:35:25.425Z,100382.00
2023-03-22T13:37:52.076Z,100380.91
2023-03-22T13:41:00.190Z,100391.34
2023-03-22T13:43:33.424Z,100391.56
2023-03-22T13:46:09.684Z,100392.25
2023-03-22T13:48:49.583Z,100401.53
2023-03-22T13:51:22.956Z,100389.66
2023-03-22T13:53:56.240Z,100390.59
2023-03-22T13:56:53.239Z,100385.09
2023-03-22T13:59:27.887Z,100384.72
2023-03-22T14:02:22.484Z,100375.16
2023-03-22T14:05:11.786Z,100368.19
2023-03-22T14:07:45.764Z,100369.22
2023-03-22T14:10:38.313Z,100371.88
2023-03-22T14:13:17.958Z,100353.22
2023-03-22T14:15:53.637Z,100358.22
2023-03-22T14:18:25.763Z,100361.22
2023-03-22T14:21:01.272Z,100363.81
